sensor_id;sensor_type;location;lat;lon;timestamp;P1;durP1;ratioP1;P2;durP2;ratioP2
58908;SDS011;44690;48.154;17.102;2022-08-19T00:00:41;6.40;;;2.78;;
58908;SDS011;44690;48.154;17.102;2022-08-19T00:02:14;7.65;;;4.07;;
58908;SDS011;44690;48.154;17.102;2022-08-19T00:03:46;7.93;;;4.47;;
58908;SDS011;44690;48.154;17.102;2022-08-19T00:06:53;10.60;;;4.15;;
58908;SDS011;44690;48.154;17.102;2022-08-19T00:08:25;14.43;;;5.07;;
58908;SDS011;44690;48.154;17.102;2022-08-19T00:09:58;14.30;;;4.93;;
58908;SDS011;44690;48.154;17.102;2022-08-19T00:11:30;11.63;;;4.55;;
58908;SDS011;44690;48.154;17.102;2022-08-19T00:13:03;7.53;;;4.18;;
58908;SDS011;44690;48.154;17.102;2022-08-19T00:14:36;11.82;;;4.82;;
58908;SDS011;44690;48.154;17.102;2022-08-19T00:16:10;14.75;;;4.82;;
58908;SDS011;44690;48.154;17.102;2022-08-19T00:17:42;12.52;;;5.75;;
58908;SDS011;44690;48.154;17.102;2022-08-19T00:19:16;17.42;;;4.38;;
58908;SDS011;44690;48.154;17.102;2022-08-19T00:20:48;13.48;;;4.15;;
58908;SDS011;44690;48.154;17.102;2022-08-19T00:22:20;7.38;;;4.45;;
58908;SDS011;44690;48.154;17.102;2022-08-19T00:23:53;7.38;;;4.25;;
58908;SDS011;44690;48.154;17.102;2022-08-19T00:25:26;8.88;;;4.78;;
58908;SDS011;44690;48.154;17.102;2022-08-19T00:27:01;9.25;;;4.65;;
58908;SDS011;44690;48.154;17.102;2022-08-19T00:28:54;9.63;;;4.05;;
58908;SDS011;44690;48.154;17.102;2022-08-19T00:30:26;18.63;;;3.92;;
58908;SDS011;44690;48.154;17.102;2022-08-19T00:32:02;11.20;;;6.03;;
58908;SDS011;44690;48.154;17.102;2022-08-19T00:33:35;8.52;;;3.80;;
58908;SDS011;44690;48.154;17.102;2022-08-19T00:35:08;12.02;;;5.15;;
58908;SDS011;44690;48.154;17.102;2022-08-19T00:36:42;9.57;;;4.25;;
58908;SDS011;44690;48.154;17.102;2022-08-19T00:38:14;10.02;;;4.25;;
58908;SDS011;44690;48.154;17.102;2022-08-19T00:40:06;15.70;;;4.55;;
58908;SDS011;44690;48.154;17.102;2022-08-19T00:41:39;14.82;;;3.75;;
58908;SDS011;44690;48.154;17.102;2022-08-19T00:43:12;11.40;;;4.82;;
58908;SDS011;44690;48.154;17.102;2022-08-19T00:44:49;19.67;;;5.55;;
58908;SDS011;44690;48.154;17.102;2022-08-19T00:46:22;14.32;;;4.88;;
58908;SDS011;44690;48.154;17.102;2022-08-19T00:47:54;11.48;;;4.07;;
58908;SDS011;44690;48.154;17.102;2022-08-19T00:51:02;7.70;;;4.10;;
58908;SDS011;44690;48.154;17.102;2022-08-19T00:52:38;13.32;;;4.43;;
58908;SDS011;44690;48.154;17.102;2022-08-19T00:54:17;12.55;;;3.75;;
58908;SDS011;44690;48.154;17.102;2022-08-19T00:56:00;15.73;;;4.18;;
58908;SDS011;44690;48.154;17.102;2022-08-19T00:57:35;12.77;;;5.35;;
58908;SDS011;44690;48.154;17.102;2022-08-19T00:59:10;8.13;;;3.83;;
58908;SDS011;44690;48.154;17.102;2022-08-19T01:00:43;23.70;;;5.05;;
58908;SDS011;44690;48.154;17.102;2022-08-19T01:02:16;11.75;;;4.18;;
58908;SDS011;44690;48.154;17.102;2022-08-19T01:03:49;14.75;;;4.63;;
58908;SDS011;44690;48.154;17.102;2022-08-19T01:05:29;15.80;;;4.20;;
58908;SDS011;44690;48.154;17.102;2022-08-19T01:07:01;13.57;;;5.00;;
58908;SDS011;44690;48.154;17.102;2022-08-19T01:08:34;9.70;;;4.28;;
58908;SDS011;44690;48.154;17.102;2022-08-19T01:10:08;11.15;;;4.63;;
58908;SDS011;44690;48.154;17.102;2022-08-19T01:11:46;12.65;;;3.88;;
58908;SDS011;44690;48.154;17.102;2022-08-19T01:13:20;11.75;;;4.05;;
58908;SDS011;44690;48.154;17.102;2022-08-19T01:14:55;10.95;;;3.88;;
58908;SDS011;44690;48.154;17.102;2022-08-19T01:16:29;8.27;;;4.38;;
58908;SDS011;44690;48.154;17.102;2022-08-19T01:18:06;11.73;;;3.72;;
58908;SDS011;44690;48.154;17.102;2022-08-19T01:19:41;15.23;;;4.03;;
58908;SDS011;44690;48.154;17.102;2022-08-19T01:21:38;17.42;;;3.63;;
58908;SDS011;44690;48.154;17.102;2022-08-19T01:23:19;15.35;;;4.22;;
58908;SDS011;44690;48.154;17.102;2022-08-19T01:24:52;5.47;;;3.03;;
58908;SDS011;44690;48.154;17.102;2022-08-19T01:26:26;11.00;;;2.80;;
58908;SDS011;44690;48.154;17.102;2022-08-19T01:28:02;10.88;;;3.90;;
58908;SDS011;44690;48.154;17.102;2022-08-19T01:29:42;5.47;;;3.40;;
58908;SDS011;44690;48.154;17.102;2022-08-19T01:31:18;15.13;;;3.17;;
58908;SDS011;44690;48.154;17.102;2022-08-19T01:32:58;8.93;;;3.53;;
58908;SDS011;44690;48.154;17.102;2022-08-19T01:34:31;15.57;;;4.10;;
58908;SDS011;44690;48.154;17.102;2022-08-19T01:36:07;9.77;;;3.78;;
58908;SDS011;44690;48.154;17.102;2022-08-19T01:37:47;9.57;;;3.47;;
58908;SDS011;44690;48.154;17.102;2022-08-19T01:39:24;10.60;;;3.42;;
58908;SDS011;44690;48.154;17.102;2022-08-19T01:40:57;11.63;;;3.58;;
58908;SDS011;44690;48.154;17.102;2022-08-19T01:42:32;9.23;;;3.22;;
58908;SDS011;44690;48.154;17.102;2022-08-19T01:44:05;7.93;;;2.65;;
58908;SDS011;44690;48.154;17.102;2022-08-19T01:45:50;5.93;;;2.88;;
58908;SDS011;44690;48.154;17.102;2022-08-19T01:47:22;9.90;;;3.28;;
58908;SDS011;44690;48.154;17.102;2022-08-19T01:48:54;7.40;;;3.17;;
58908;SDS011;44690;48.154;17.102;2022-08-19T01:50:27;11.10;;;3.10;;
58908;SDS011;44690;48.154;17.102;2022-08-19T01:52:00;16.67;;;3.40;;
58908;SDS011;44690;48.154;17.102;2022-08-19T01:53:33;9.05;;;4.18;;
58908;SDS011;44690;48.154;17.102;2022-08-19T01:55:06;11.73;;;3.58;;
58908;SDS011;44690;48.154;17.102;2022-08-19T01:56:41;5.78;;;2.67;;
58908;SDS011;44690;48.154;17.102;2022-08-19T01:58:17;16.92;;;3.25;;
58908;SDS011;44690;48.154;17.102;2022-08-19T01:59:52;14.80;;;3.22;;
58908;SDS011;44690;48.154;17.102;2022-08-19T02:01:25;10.98;;;3.03;;
58908;SDS011;44690;48.154;17.102;2022-08-19T02:03:02;14.57;;;3.33;;
58908;SDS011;44690;48.154;17.102;2022-08-19T02:06:06;9.15;;;3.50;;
58908;SDS011;44690;48.154;17.102;2022-08-19T02:07:39;9.00;;;3.00;;
58908;SDS011;44690;48.154;17.102;2022-08-19T02:09:12;10.10;;;3.80;;
58908;SDS011;44690;48.154;17.102;2022-08-19T02:12:17;7.47;;;3.08;;
58908;SDS011;44690;48.154;17.102;2022-08-19T02:13:49;15.60;;;3.70;;
58908;SDS011;44690;48.154;17.102;2022-08-19T02:15:21;7.35;;;3.25;;
58908;SDS011;44690;48.154;17.102;2022-08-19T02:16:54;11.93;;;3.95;;
58908;SDS011;44690;48.154;17.102;2022-08-19T02:18:26;13.20;;;2.75;;
58908;SDS011;44690;48.154;17.102;2022-08-19T02:19:59;12.02;;;4.05;;
58908;SDS011;44690;48.154;17.102;2022-08-19T02:21:32;8.05;;;2.95;;
58908;SDS011;44690;48.154;17.102;2022-08-19T02:23:05;9.50;;;3.42;;
58908;SDS011;44690;48.154;17.102;2022-08-19T02:24:44;13.75;;;4.07;;
58908;SDS011;44690;48.154;17.102;2022-08-19T02:26:17;9.80;;;3.95;;
58908;SDS011;44690;48.154;17.102;2022-08-19T02:27:51;10.55;;;3.22;;
58908;SDS011;44690;48.154;17.102;2022-08-19T02:29:23;9.45;;;3.88;;
58908;SDS011;44690;48.154;17.102;2022-08-19T02:30:56;7.38;;;3.50;;
58908;SDS011;44690;48.154;17.102;2022-08-19T02:32:28;8.45;;;2.80;;
58908;SDS011;44690;48.154;17.102;2022-08-19T02:34:02;10.40;;;3.63;;
58908;SDS011;44690;48.154;17.102;2022-08-19T02:35:35;7.05;;;2.63;;
58908;SDS011;44690;48.154;17.102;2022-08-19T02:37:07;9.13;;;3.25;;
58908;SDS011;44690;48.154;17.102;2022-08-19T02:39:06;8.65;;;3.47;;
58908;SDS011;44690;48.154;17.102;2022-08-19T02:40:38;6.35;;;2.72;;
58908;SDS011;44690;48.154;17.102;2022-08-19T02:42:10;11.48;;;4.15;;
58908;SDS011;44690;48.154;17.102;2022-08-19T02:43:43;11.25;;;4.50;;
58908;SDS011;44690;48.154;17.102;2022-08-19T02:45:36;11.93;;;2.95;;
58908;SDS011;44690;48.154;17.102;2022-08-19T02:47:12;12.52;;;3.40;;
58908;SDS011;44690;48.154;17.102;2022-08-19T02:48:48;24.75;;;4.43;;
58908;SDS011;44690;48.154;17.102;2022-08-19T02:50:21;11.60;;;3.63;;
58908;SDS011;44690;48.154;17.102;2022-08-19T02:51:55;11.80;;;3.95;;
58908;SDS011;44690;48.154;17.102;2022-08-19T02:53:28;6.90;;;3.60;;
58908;SDS011;44690;48.154;17.102;2022-08-19T02:56:36;7.93;;;2.95;;
58908;SDS011;44690;48.154;17.102;2022-08-19T02:58:10;10.98;;;4.43;;
58908;SDS011;44690;48.154;17.102;2022-08-19T02:59:42;12.45;;;4.30;;
58908;SDS011;44690;48.154;17.102;2022-08-19T03:01:22;10.93;;;4.35;;
58908;SDS011;44690;48.154;17.102;2022-08-19T03:02:59;10.52;;;3.80;;
58908;SDS011;44690;48.154;17.102;2022-08-19T03:04:32;11.18;;;3.78;;
58908;SDS011;44690;48.154;17.102;2022-08-19T03:06:12;20.48;;;4.40;;
58908;SDS011;44690;48.154;17.102;2022-08-19T03:07:46;5.78;;;3.35;;
58908;SDS011;44690;48.154;17.102;2022-08-19T03:09:18;9.25;;;4.20;;
58908;SDS011;44690;48.154;17.102;2022-08-19T03:10:51;11.32;;;3.33;;
58908;SDS011;44690;48.154;17.102;2022-08-19T03:12:25;9.07;;;3.50;;
58908;SDS011;44690;48.154;17.102;2022-08-19T03:13:57;11.07;;;3.40;;
58908;SDS011;44690;48.154;17.102;2022-08-19T03:15:30;8.18;;;3.47;;
58908;SDS011;44690;48.154;17.102;2022-08-19T03:17:03;19.15;;;3.47;;
58908;SDS011;44690;48.154;17.102;2022-08-19T03:18:36;10.75;;;3.92;;
58908;SDS011;44690;48.154;17.102;2022-08-19T03:20:09;11.88;;;3.40;;
58908;SDS011;44690;48.154;17.102;2022-08-19T03:21:44;8.25;;;3.53;;
58908;SDS011;44690;48.154;17.102;2022-08-19T03:23:17;8.98;;;3.03;;
58908;SDS011;44690;48.154;17.102;2022-08-19T03:24:49;10.27;;;3.80;;
58908;SDS011;44690;48.154;17.102;2022-08-19T03:26:21;14.57;;;4.05;;
58908;SDS011;44690;48.154;17.102;2022-08-19T03:27:54;10.63;;;2.83;;
58908;SDS011;44690;48.154;17.102;2022-08-19T03:29:27;7.70;;;3.85;;
58908;SDS011;44690;48.154;17.102;2022-08-19T03:31:06;8.82;;;3.63;;
58908;SDS011;44690;48.154;17.102;2022-08-19T03:33:01;8.65;;;3.20;;
58908;SDS011;44690;48.154;17.102;2022-08-19T03:34:36;18.58;;;3.38;;
58908;SDS011;44690;48.154;17.102;2022-08-19T03:36:11;13.82;;;3.38;;
58908;SDS011;44690;48.154;17.102;2022-08-19T03:37:48;11.80;;;3.80;;
58908;SDS011;44690;48.154;17.102;2022-08-19T03:39:20;11.77;;;3.15;;
58908;SDS011;44690;48.154;17.102;2022-08-19T03:40:54;11.80;;;3.55;;
58908;SDS011;44690;48.154;17.102;2022-08-19T03:44:19;15.38;;;3.60;;
58908;SDS011;44690;48.154;17.102;2022-08-19T03:46:10;16.27;;;4.50;;
58908;SDS011;44690;48.154;17.102;2022-08-19T03:47:45;14.48;;;3.70;;
58908;SDS011;44690;48.154;17.102;2022-08-19T03:49:18;10.55;;;3.38;;
58908;SDS011;44690;48.154;17.102;2022-08-19T03:50:51;6.65;;;3.40;;
58908;SDS011;44690;48.154;17.102;2022-08-19T03:52:24;9.63;;;3.15;;
58908;SDS011;44690;48.154;17.102;2022-08-19T03:57:02;18.27;;;5.00;;
58908;SDS011;44690;48.154;17.102;2022-08-19T03:58:34;9.13;;;4.15;;
58908;SDS011;44690;48.154;17.102;2022-08-19T04:00:09;12.55;;;3.20;;
58908;SDS011;44690;48.154;17.102;2022-08-19T04:01:44;10.35;;;3.50;;
58908;SDS011;44690;48.154;17.102;2022-08-19T04:03:17;9.38;;;3.45;;
58908;SDS011;44690;48.154;17.102;2022-08-19T04:04:52;11.13;;;5.00;;
58908;SDS011;44690;48.154;17.102;2022-08-19T04:06:31;8.00;;;3.33;;
58908;SDS011;44690;48.154;17.102;2022-08-19T04:08:05;16.25;;;3.90;;
58908;SDS011;44690;48.154;17.102;2022-08-19T04:09:44;15.80;;;4.25;;
58908;SDS011;44690;48.154;17.102;2022-08-19T04:11:18;12.00;;;4.38;;
58908;SDS011;44690;48.154;17.102;2022-08-19T04:13:14;10.73;;;3.83;;
58908;SDS011;44690;48.154;17.102;2022-08-19T04:14:48;14.10;;;4.10;;
58908;SDS011;44690;48.154;17.102;2022-08-19T04:16:20;10.70;;;5.13;;
58908;SDS011;44690;48.154;17.102;2022-08-19T04:18:05;12.70;;;5.30;;
58908;SDS011;44690;48.154;17.102;2022-08-19T04:19:39;12.45;;;4.80;;
58908;SDS011;44690;48.154;17.102;2022-08-19T04:21:24;12.38;;;5.63;;
58908;SDS011;44690;48.154;17.102;2022-08-19T04:22:57;8.45;;;4.97;;
58908;SDS011;44690;48.154;17.102;2022-08-19T04:24:29;11.35;;;5.57;;
58908;SDS011;44690;48.154;17.102;2022-08-19T04:26:02;17.77;;;5.10;;
58908;SDS011;44690;48.154;17.102;2022-08-19T04:27:35;13.32;;;6.55;;
58908;SDS011;44690;48.154;17.102;2022-08-19T04:29:10;11.77;;;5.15;;
58908;SDS011;44690;48.154;17.102;2022-08-19T04:30:45;12.70;;;6.65;;
58908;SDS011;44690;48.154;17.102;2022-08-19T04:32:21;14.90;;;6.38;;
58908;SDS011;44690;48.154;17.102;2022-08-19T04:33:58;21.95;;;6.55;;
58908;SDS011;44690;48.154;17.102;2022-08-19T04:35:39;10.70;;;5.47;;
58908;SDS011;44690;48.154;17.102;2022-08-19T04:37:13;9.05;;;5.50;;
58908;SDS011;44690;48.154;17.102;2022-08-19T04:38:46;8.98;;;5.97;;
58908;SDS011;44690;48.154;17.102;2022-08-19T04:40:23;15.02;;;6.35;;
58908;SDS011;44690;48.154;17.102;2022-08-19T04:42:14;23.73;;;7.25;;
58908;SDS011;44690;48.154;17.102;2022-08-19T04:44:07;16.10;;;6.20;;
58908;SDS011;44690;48.154;17.102;2022-08-19T04:45:39;12.40;;;6.32;;
58908;SDS011;44690;48.154;17.102;2022-08-19T04:47:15;13.18;;;5.93;;
58908;SDS011;44690;48.154;17.102;2022-08-19T04:49:08;16.85;;;7.53;;
58908;SDS011;44690;48.154;17.102;2022-08-19T04:50:44;14.85;;;6.50;;
58908;SDS011;44690;48.154;17.102;2022-08-19T04:52:16;10.52;;;7.13;;
58908;SDS011;44690;48.154;17.102;2022-08-19T04:53:49;11.27;;;6.38;;
58908;SDS011;44690;48.154;17.102;2022-08-19T04:55:22;16.15;;;6.68;;
58908;SDS011;44690;48.154;17.102;2022-08-19T04:56:55;19.10;;;7.00;;
58908;SDS011;44690;48.154;17.102;2022-08-19T04:58:27;10.90;;;7.03;;
58908;SDS011;44690;48.154;17.102;2022-08-19T05:00:00;16.45;;;6.97;;
58908;SDS011;44690;48.154;17.102;2022-08-19T05:01:32;11.93;;;6.72;;
58908;SDS011;44690;48.154;17.102;2022-08-19T05:03:05;11.48;;;7.28;;
58908;SDS011;44690;48.154;17.102;2022-08-19T05:04:38;14.00;;;8.25;;
58908;SDS011;44690;48.154;17.102;2022-08-19T05:06:12;10.60;;;7.60;;
58908;SDS011;44690;48.154;17.102;2022-08-19T05:07:46;11.98;;;7.10;;
58908;SDS011;44690;48.154;17.102;2022-08-19T05:09:18;16.65;;;8.02;;
58908;SDS011;44690;48.154;17.102;2022-08-19T05:10:52;11.95;;;7.68;;
58908;SDS011;44690;48.154;17.102;2022-08-19T05:12:25;15.80;;;7.30;;
58908;SDS011;44690;48.154;17.102;2022-08-19T05:14:00;15.10;;;7.20;;
58908;SDS011;44690;48.154;17.102;2022-08-19T05:15:33;21.90;;;7.85;;
58908;SDS011;44690;48.154;17.102;2022-08-19T05:17:06;9.38;;;7.35;;
58908;SDS011;44690;48.154;17.102;2022-08-19T05:18:58;10.30;;;6.60;;
58908;SDS011;44690;48.154;17.102;2022-08-19T05:20:49;14.43;;;7.53;;
58908;SDS011;44690;48.154;17.102;2022-08-19T05:22:40;12.95;;;7.97;;
58908;SDS011;44690;48.154;17.102;2022-08-19T05:24:14;10.60;;;6.57;;
58908;SDS011;44690;48.154;17.102;2022-08-19T05:25:47;14.10;;;7.78;;
58908;SDS011;44690;48.154;17.102;2022-08-19T05:27:20;18.05;;;8.25;;
58908;SDS011;44690;48.154;17.102;2022-08-19T05:28:52;13.70;;;8.82;;
58908;SDS011;44690;48.154;17.102;2022-08-19T05:30:25;10.95;;;8.05;;
58908;SDS011;44690;48.154;17.102;2022-08-19T05:32:17;18.13;;;9.13;;
58908;SDS011;44690;48.154;17.102;2022-08-19T05:35:22;11.52;;;8.88;;
58908;SDS011;44690;48.154;17.102;2022-08-19T05:36:57;18.13;;;7.72;;
58908;SDS011;44690;48.154;17.102;2022-08-19T05:38:30;10.82;;;8.38;;
58908;SDS011;44690;48.154;17.102;2022-08-19T05:40:03;11.93;;;8.43;;
58908;SDS011;44690;48.154;17.102;2022-08-19T05:41:40;15.30;;;10.57;;
58908;SDS011;44690;48.154;17.102;2022-08-19T05:43:14;12.63;;;8.15;;
58908;SDS011;44690;48.154;17.102;2022-08-19T05:44:49;10.00;;;8.40;;
58908;SDS011;44690;48.154;17.102;2022-08-19T05:46:22;12.38;;;8.77;;
58908;SDS011;44690;48.154;17.102;2022-08-19T05:47:59;16.65;;;8.60;;
58908;SDS011;44690;48.154;17.102;2022-08-19T05:49:32;15.75;;;8.80;;
58908;SDS011;44690;48.154;17.102;2022-08-19T05:51:06;10.63;;;8.82;;
58908;SDS011;44690;48.154;17.102;2022-08-19T05:52:40;16.50;;;8.02;;
58908;SDS011;44690;48.154;17.102;2022-08-19T05:54:17;16.05;;;9.40;;
58908;SDS011;44690;48.154;17.102;2022-08-19T05:55:50;12.23;;;8.43;;
58908;SDS011;44690;48.154;17.102;2022-08-19T05:57:23;16.95;;;9.02;;
58908;SDS011;44690;48.154;17.102;2022-08-19T05:58:56;16.17;;;9.50;;
58908;SDS011;44690;48.154;17.102;2022-08-19T06:00:30;14.65;;;8.52;;
58908;SDS011;44690;48.154;17.102;2022-08-19T06:02:03;11.10;;;9.50;;
58908;SDS011;44690;48.154;17.102;2022-08-19T06:03:36;21.08;;;9.52;;
58908;SDS011;44690;48.154;17.102;2022-08-19T06:05:09;20.25;;;9.90;;
58908;SDS011;44690;48.154;17.102;2022-08-19T06:06:42;20.75;;;8.70;;
58908;SDS011;44690;48.154;17.102;2022-08-19T06:08:14;12.50;;;9.23;;
58908;SDS011;44690;48.154;17.102;2022-08-19T06:09:47;13.38;;;9.80;;
58908;SDS011;44690;48.154;17.102;2022-08-19T06:11:34;16.98;;;8.88;;
58908;SDS011;44690;48.154;17.102;2022-08-19T06:13:10;16.30;;;9.60;;
58908;SDS011;44690;48.154;17.102;2022-08-19T06:14:42;13.68;;;9.15;;
58908;SDS011;44690;48.154;17.102;2022-08-19T06:16:14;11.10;;;9.40;;
58908;SDS011;44690;48.154;17.102;2022-08-19T06:17:53;13.82;;;8.13;;
58908;SDS011;44690;48.154;17.102;2022-08-19T06:19:25;20.02;;;9.70;;
58908;SDS011;44690;48.154;17.102;2022-08-19T06:20:58;14.48;;;9.32;;
58908;SDS011;44690;48.154;17.102;2022-08-19T06:22:30;15.27;;;8.98;;
58908;SDS011;44690;48.154;17.102;2022-08-19T06:24:05;11.68;;;9.07;;
58908;SDS011;44690;48.154;17.102;2022-08-19T06:25:39;11.73;;;8.77;;
58908;SDS011;44690;48.154;17.102;2022-08-19T06:27:12;14.13;;;8.15;;
58908;SDS011;44690;48.154;17.102;2022-08-19T06:30:18;17.83;;;7.88;;
58908;SDS011;44690;48.154;17.102;2022-08-19T06:31:53;10.55;;;9.13;;
58908;SDS011;44690;48.154;17.102;2022-08-19T06:33:26;16.67;;;9.32;;
58908;SDS011;44690;48.154;17.102;2022-08-19T06:34:58;12.40;;;9.57;;
58908;SDS011;44690;48.154;17.102;2022-08-19T06:36:41;13.05;;;9.68;;
58908;SDS011;44690;48.154;17.102;2022-08-19T06:38:15;9.93;;;8.02;;
58908;SDS011;44690;48.154;17.102;2022-08-19T06:39:48;17.02;;;9.48;;
58908;SDS011;44690;48.154;17.102;2022-08-19T06:41:21;18.75;;;8.30;;
58908;SDS011;44690;48.154;17.102;2022-08-19T06:42:53;19.48;;;8.85;;
58908;SDS011;44690;48.154;17.102;2022-08-19T06:44:27;11.82;;;5.82;;
58908;SDS011;44690;48.154;17.102;2022-08-19T06:46:02;9.95;;;5.20;;
58908;SDS011;44690;48.154;17.102;2022-08-19T06:47:37;13.50;;;5.22;;
58908;SDS011;44690;48.154;17.102;2022-08-19T06:49:09;9.02;;;4.95;;
58908;SDS011;44690;48.154;17.102;2022-08-19T06:50:45;8.88;;;5.30;;
58908;SDS011;44690;48.154;17.102;2022-08-19T06:52:20;9.00;;;4.15;;
58908;SDS011;44690;48.154;17.102;2022-08-19T06:53:53;11.55;;;4.10;;
58908;SDS011;44690;48.154;17.102;2022-08-19T06:55:27;14.05;;;4.57;;
58908;SDS011;44690;48.154;17.102;2022-08-19T06:57:04;13.35;;;4.55;;
58908;SDS011;44690;48.154;17.102;2022-08-19T06:58:38;13.48;;;4.40;;
58908;SDS011;44690;48.154;17.102;2022-08-19T07:01:46;7.85;;;3.88;;
58908;SDS011;44690;48.154;17.102;2022-08-19T07:03:21;16.77;;;4.15;;
58908;SDS011;44690;48.154;17.102;2022-08-19T07:04:53;9.23;;;5.05;;
58908;SDS011;44690;48.154;17.102;2022-08-19T07:08:15;15.38;;;5.20;;
58908;SDS011;44690;48.154;17.102;2022-08-19T07:09:50;21.40;;;4.65;;
58908;SDS011;44690;48.154;17.102;2022-08-19T07:11:31;14.82;;;4.30;;
58908;SDS011;44690;48.154;17.102;2022-08-19T07:13:04;16.33;;;5.97;;
58908;SDS011;44690;48.154;17.102;2022-08-19T07:14:38;17.30;;;6.07;;
58908;SDS011;44690;48.154;17.102;2022-08-19T07:16:12;31.80;;;6.45;;
58908;SDS011;44690;48.154;17.102;2022-08-19T07:17:51;10.27;;;4.95;;
58908;SDS011;44690;48.154;17.102;2022-08-19T07:19:24;11.90;;;5.53;;
58908;SDS011;44690;48.154;17.102;2022-08-19T07:21:03;16.25;;;5.07;;
58908;SDS011;44690;48.154;17.102;2022-08-19T07:22:40;21.38;;;5.75;;
58908;SDS011;44690;48.154;17.102;2022-08-19T07:24:12;10.18;;;5.05;;
58908;SDS011;44690;48.154;17.102;2022-08-19T07:25:45;13.20;;;5.20;;
58908;SDS011;44690;48.154;17.102;2022-08-19T07:27:24;13.20;;;5.13;;
58908;SDS011;44690;48.154;17.102;2022-08-19T07:30:29;8.15;;;5.63;;
58908;SDS011;44690;48.154;17.102;2022-08-19T07:32:03;9.07;;;5.15;;
58908;SDS011;44690;48.154;17.102;2022-08-19T07:33:42;8.13;;;5.40;;
58908;SDS011;44690;48.154;17.102;2022-08-19T07:36:47;8.55;;;5.55;;
58908;SDS011;44690;48.154;17.102;2022-08-19T07:38:19;15.35;;;5.72;;
58908;SDS011;44690;48.154;17.102;2022-08-19T07:39:52;15.40;;;6.07;;
58908;SDS011;44690;48.154;17.102;2022-08-19T07:41:25;13.13;;;5.68;;
58908;SDS011;44690;48.154;17.102;2022-08-19T07:43:00;12.13;;;6.45;;
58908;SDS011;44690;48.154;17.102;2022-08-19T07:44:34;10.50;;;4.57;;
58908;SDS011;44690;48.154;17.102;2022-08-19T07:46:09;9.30;;;5.72;;
58908;SDS011;44690;48.154;17.102;2022-08-19T07:47:43;9.93;;;5.40;;
58908;SDS011;44690;48.154;17.102;2022-08-19T07:49:21;6.70;;;4.65;;
58908;SDS011;44690;48.154;17.102;2022-08-19T07:50:55;10.27;;;6.03;;
58908;SDS011;44690;48.154;17.102;2022-08-19T07:52:29;10.75;;;6.35;;
58908;SDS011;44690;48.154;17.102;2022-08-19T07:54:02;11.88;;;6.07;;
58908;SDS011;44690;48.154;17.102;2022-08-19T07:55:35;18.90;;;5.63;;
58908;SDS011;44690;48.154;17.102;2022-08-19T07:57:14;13.07;;;5.60;;
58908;SDS011;44690;48.154;17.102;2022-08-19T07:58:48;11.75;;;5.05;;
58908;SDS011;44690;48.154;17.102;2022-08-19T08:00:22;11.52;;;5.43;;
58908;SDS011;44690;48.154;17.102;2022-08-19T08:01:56;16.30;;;7.00;;
58908;SDS011;44690;48.154;17.102;2022-08-19T08:03:31;9.70;;;5.55;;
58908;SDS011;44690;48.154;17.102;2022-08-19T08:05:24;8.48;;;6.40;;
58908;SDS011;44690;48.154;17.102;2022-08-19T08:07:17;13.48;;;7.18;;
58908;SDS011;44690;48.154;17.102;2022-08-19T08:09:08;17.77;;;7.13;;
58908;SDS011;44690;48.154;17.102;2022-08-19T08:10:47;10.35;;;6.65;;
58908;SDS011;44690;48.154;17.102;2022-08-19T08:12:29;15.80;;;6.97;;
58908;SDS011;44690;48.154;17.102;2022-08-19T08:14:06;11.95;;;6.55;;
58908;SDS011;44690;48.154;17.102;2022-08-19T08:15:58;12.25;;;7.22;;
58908;SDS011;44690;48.154;17.102;2022-08-19T08:17:31;13.50;;;7.03;;
58908;SDS011;44690;48.154;17.102;2022-08-19T08:19:23;11.40;;;8.75;;
58908;SDS011;44690;48.154;17.102;2022-08-19T08:20:57;14.02;;;8.57;;
58908;SDS011;44690;48.154;17.102;2022-08-19T08:22:30;12.07;;;7.67;;
58908;SDS011;44690;48.154;17.102;2022-08-19T08:24:25;12.65;;;7.35;;
58908;SDS011;44690;48.154;17.102;2022-08-19T08:25:59;13.30;;;7.70;;
58908;SDS011;44690;48.154;17.102;2022-08-19T08:27:38;12.85;;;7.85;;
58908;SDS011;44690;48.154;17.102;2022-08-19T08:29:13;10.90;;;6.60;;
58908;SDS011;44690;48.154;17.102;2022-08-19T08:30:47;11.65;;;6.75;;
58908;SDS011;44690;48.154;17.102;2022-08-19T08:32:21;12.88;;;7.65;;
58908;SDS011;44690;48.154;17.102;2022-08-19T08:33:56;16.90;;;8.70;;
58908;SDS011;44690;48.154;17.102;2022-08-19T08:35:28;13.85;;;7.82;;
58908;SDS011;44690;48.154;17.102;2022-08-19T08:37:00;13.07;;;9.70;;
58908;SDS011;44690;48.154;17.102;2022-08-19T08:38:33;10.98;;;7.93;;
58908;SDS011;44690;48.154;17.102;2022-08-19T08:40:18;18.20;;;8.75;;
58908;SDS011;44690;48.154;17.102;2022-08-19T08:43:44;12.65;;;9.05;;
58908;SDS011;44690;48.154;17.102;2022-08-19T08:45:18;20.17;;;10.10;;
58908;SDS011;44690;48.154;17.102;2022-08-19T08:46:53;13.73;;;8.00;;
58908;SDS011;44690;48.154;17.102;2022-08-19T08:50:29;11.80;;;8.60;;
58908;SDS011;44690;48.154;17.102;2022-08-19T08:52:16;20.40;;;9.13;;
58908;SDS011;44690;48.154;17.102;2022-08-19T08:53:53;12.70;;;8.52;;
58908;SDS011;44690;48.154;17.102;2022-08-19T08:55:28;16.35;;;9.68;;
58908;SDS011;44690;48.154;17.102;2022-08-19T08:57:10;13.73;;;8.68;;
58908;SDS011;44690;48.154;17.102;2022-08-19T08:59:02;12.77;;;8.30;;
58908;SDS011;44690;48.154;17.102;2022-08-19T09:00:47;11.40;;;7.97;;
58908;SDS011;44690;48.154;17.102;2022-08-19T09:02:20;12.00;;;8.27;;
58908;SDS011;44690;48.154;17.102;2022-08-19T09:03:53;11.25;;;8.02;;
58908;SDS011;44690;48.154;17.102;2022-08-19T09:05:36;15.50;;;10.02;;
58908;SDS011;44690;48.154;17.102;2022-08-19T09:08:04;11.23;;;8.32;;
58908;SDS011;44690;48.154;17.102;2022-08-19T09:11:06;16.17;;;9.13;;
58908;SDS011;44690;48.154;17.102;2022-08-19T09:12:47;12.05;;;8.10;;
58908;SDS011;44690;48.154;17.102;2022-08-19T09:14:37;10.95;;;7.95;;
58908;SDS011;44690;48.154;17.102;2022-08-19T09:16:23;14.77;;;9.07;;
58908;SDS011;44690;48.154;17.102;2022-08-19T09:18:00;9.05;;;8.15;;
58908;SDS011;44690;48.154;17.102;2022-08-19T09:21:36;14.15;;;8.02;;
58908;SDS011;44690;48.154;17.102;2022-08-19T09:23:11;16.00;;;9.13;;
58908;SDS011;44690;48.154;17.102;2022-08-19T09:26:17;10.07;;;8.77;;
58908;SDS011;44690;48.154;17.102;2022-08-19T09:27:53;9.35;;;7.47;;
58908;SDS011;44690;48.154;17.102;2022-08-19T09:29:34;31.80;;;9.13;;
58908;SDS011;44690;48.154;17.102;2022-08-19T09:31:06;17.23;;;9.57;;
58908;SDS011;44690;48.154;17.102;2022-08-19T09:32:38;11.60;;;7.75;;
58908;SDS011;44690;48.154;17.102;2022-08-19T09:34:14;14.77;;;8.15;;
58908;SDS011;44690;48.154;17.102;2022-08-19T09:36:06;18.45;;;9.35;;
58908;SDS011;44690;48.154;17.102;2022-08-19T09:37:40;12.43;;;8.18;;
58908;SDS011;44690;48.154;17.102;2022-08-19T09:39:15;16.20;;;7.68;;
58908;SDS011;44690;48.154;17.102;2022-08-19T09:40:50;11.73;;;8.40;;
58908;SDS011;44690;48.154;17.102;2022-08-19T09:42:22;11.70;;;7.85;;
58908;SDS011;44690;48.154;17.102;2022-08-19T09:44:01;16.42;;;7.93;;
58908;SDS011;44690;48.154;17.102;2022-08-19T09:45:33;10.50;;;7.80;;
58908;SDS011;44690;48.154;17.102;2022-08-19T09:47:07;15.95;;;9.60;;
58908;SDS011;44690;48.154;17.102;2022-08-19T09:48:41;13.20;;;8.65;;
58908;SDS011;44690;48.154;17.102;2022-08-19T09:50:14;16.50;;;8.02;;
58908;SDS011;44690;48.154;17.102;2022-08-19T09:51:51;22.77;;;9.88;;
58908;SDS011;44690;48.154;17.102;2022-08-19T09:53:26;12.27;;;7.80;;